sensor_id;sensor_type;location;lat;lon;timestamp;P1;durP1;ratioP1;P2;durP2;ratioP2
22378;SDS011;11357;49.990;7.370;2024-03-25T00:01:03;1519.73;;;604.40;;
22378;SDS011;11357;49.990;7.370;2024-03-25T00:03:29;1917.03;;;660.27;;
22378;SDS011;11357;49.990;7.370;2024-03-25T00:05:54;1818.00;;;434.63;;
22378;SDS011;11357;49.990;7.370;2024-03-25T00:08:20;1693.27;;;759.23;;
22378;SDS011;11357;49.990;7.370;2024-03-25T00:10:46;1657.17;;;486.50;;
22378;SDS011;11357;49.990;7.370;2024-03-25T00:13:11;1405.30;;;505.20;;
22378;SDS011;11357;49.990;7.370;2024-03-25T00:15:37;1999.90;;;999.90;;
22378;SDS011;11357;49.990;7.370;2024-03-25T00:18:03;1999.90;;;999.90;;
22378;SDS011;11357;49.990;7.370;2024-03-25T00:20:29;1999.90;;;999.90;;
22378;SDS011;11357;49.990;7.370;2024-03-25T00:22:55;1999.90;;;999.90;;
22378;SDS011;11357;49.990;7.370;2024-03-25T00:25:20;1999.90;;;999.90;;
22378;SDS011;11357;49.990;7.370;2024-03-25T00:27:46;1999.90;;;999.90;;
22378;SDS011;11357;49.990;7.370;2024-03-25T00:30:12;1999.90;;;999.90;;
22378;SDS011;11357;49.990;7.370;2024-03-25T00:32:38;1999.90;;;999.90;;
22378;SDS011;11357;49.990;7.370;2024-03-25T00:35:05;1999.90;;;999.90;;
22378;SDS011;11357;49.990;7.370;2024-03-25T00:37:31;1999.90;;;999.90;;
22378;SDS011;11357;49.990;7.370;2024-03-25T00:55:50;1999.90;;;999.90;;
22378;SDS011;11357;49.990;7.370;2024-03-25T00:58:16;1999.90;;;999.90;;
22378;SDS011;11357;49.990;7.370;2024-03-25T01:00:42;1999.90;;;999.90;;
22378;SDS011;11357;49.990;7.370;2024-03-25T01:03:07;1999.90;;;999.90;;
22378;SDS011;11357;49.990;7.370;2024-03-25T01:05:33;1999.90;;;999.90;;
22378;SDS011;11357;49.990;7.370;2024-03-25T01:13:31;1999.90;;;999.90;;
22378;SDS011;11357;49.990;7.370;2024-03-25T01:15:56;1999.90;;;999.90;;
22378;SDS011;11357;49.990;7.370;2024-03-25T01:18:25;1999.90;;;999.90;;
22378;SDS011;11357;49.990;7.370;2024-03-25T01:20:51;1999.90;;;999.90;;
22378;SDS011;11357;49.990;7.370;2024-03-25T01:23:16;1999.90;;;999.90;;
22378;SDS011;11357;49.990;7.370;2024-03-25T01:25:42;1999.90;;;999.90;;
22378;SDS011;11357;49.990;7.370;2024-03-25T01:28:08;1999.90;;;999.90;;
22378;SDS011;11357;49.990;7.370;2024-03-25T01:30:33;1999.90;;;999.90;;
22378;SDS011;11357;49.990;7.370;2024-03-25T01:33:00;1999.90;;;999.90;;
22378;SDS011;11357;49.990;7.370;2024-03-25T01:35:27;1999.90;;;999.90;;
22378;SDS011;11357;49.990;7.370;2024-03-25T01:37:53;1999.90;;;999.90;;
22378;SDS011;11357;49.990;7.370;2024-03-25T01:40:19;1999.90;;;999.90;;
22378;SDS011;11357;49.990;7.370;2024-03-25T01:42:54;1999.90;;;999.90;;
22378;SDS011;11357;49.990;7.370;2024-03-25T01:45:24;1999.90;;;999.90;;
22378;SDS011;11357;49.990;7.370;2024-03-25T01:47:52;1999.90;;;999.90;;
22378;SDS011;11357;49.990;7.370;2024-03-25T01:50:19;1999.90;;;999.90;;
22378;SDS011;11357;49.990;7.370;2024-03-25T01:52:46;1999.90;;;999.90;;
22378;SDS011;11357;49.990;7.370;2024-03-25T01:55:12;1999.90;;;999.90;;
22378;SDS011;11357;49.990;7.370;2024-03-25T01:57:45;1999.90;;;999.90;;
22378;SDS011;11357;49.990;7.370;2024-03-25T02:00:12;1999.90;;;999.90;;
22378;SDS011;11357;49.990;7.370;2024-03-25T02:02:39;1999.90;;;999.90;;
22378;SDS011;11357;49.990;7.370;2024-03-25T02:05:23;1999.90;;;999.90;;
22378;SDS011;11357;49.990;7.370;2024-03-25T02:07:49;1560.77;;;586.10;;
22378;SDS011;11357;49.990;7.370;2024-03-25T02:10:17;1999.90;;;999.90;;
22378;SDS011;11357;49.990;7.370;2024-03-25T02:12:43;1999.90;;;999.90;;
22378;SDS011;11357;49.990;7.370;2024-03-25T02:15:11;1999.90;;;999.90;;
22378;SDS011;11357;49.990;7.370;2024-03-25T02:17:38;1999.90;;;999.90;;
22378;SDS011;11357;49.990;7.370;2024-03-25T02:20:06;1999.90;;;999.90;;
22378;SDS011;11357;49.990;7.370;2024-03-25T02:22:36;1999.90;;;999.90;;
22378;SDS011;11357;49.990;7.370;2024-03-25T02:25:02;1999.90;;;999.90;;
22378;SDS011;11357;49.990;7.370;2024-03-25T02:27:32;1999.90;;;999.90;;
22378;SDS011;11357;49.990;7.370;2024-03-25T02:30:16;1999.90;;;999.90;;
22378;SDS011;11357;49.990;7.370;2024-03-25T02:32:41;1999.90;;;999.90;;
22378;SDS011;11357;49.990;7.370;2024-03-25T02:35:12;1999.90;;;999.90;;
22378;SDS011;11357;49.990;7.370;2024-03-25T02:37:41;1999.90;;;999.90;;
22378;SDS011;11357;49.990;7.370;2024-03-25T02:40:07;1999.90;;;999.90;;
22378;SDS011;11357;49.990;7.370;2024-03-25T02:42:35;1999.90;;;999.90;;
22378;SDS011;11357;49.990;7.370;2024-03-25T02:45:01;1999.90;;;999.90;;
22378;SDS011;11357;49.990;7.370;2024-03-25T02:47:27;1999.90;;;999.90;;
22378;SDS011;11357;49.990;7.370;2024-03-25T02:52:34;1999.90;;;999.90;;
22378;SDS011;11357;49.990;7.370;2024-03-25T02:55:00;1999.90;;;999.90;;
22378;SDS011;11357;49.990;7.370;2024-03-25T02:57:26;1999.90;;;999.90;;
22378;SDS011;11357;49.990;7.370;2024-03-25T02:59:51;1999.90;;;999.90;;
22378;SDS011;11357;49.990;7.370;2024-03-25T03:02:17;1999.90;;;999.90;;
22378;SDS011;11357;49.990;7.370;2024-03-25T03:04:43;1999.90;;;999.90;;
22378;SDS011;11357;49.990;7.370;2024-03-25T03:07:08;1999.90;;;999.90;;
22378;SDS011;11357;49.990;7.370;2024-03-25T03:09:34;1999.90;;;999.90;;
22378;SDS011;11357;49.990;7.370;2024-03-25T03:12:00;1999.90;;;999.90;;
22378;SDS011;11357;49.990;7.370;2024-03-25T03:14:25;1999.90;;;999.90;;
22378;SDS011;11357;49.990;7.370;2024-03-25T03:16:51;1999.90;;;999.90;;
22378;SDS011;11357;49.990;7.370;2024-03-25T03:27:16;1999.90;;;999.90;;
22378;SDS011;11357;49.990;7.370;2024-03-25T03:34:58;1999.90;;;999.90;;
22378;SDS011;11357;49.990;7.370;2024-03-25T03:37:24;1999.90;;;999.90;;
22378;SDS011;11357;49.990;7.370;2024-03-25T03:39:49;1999.90;;;999.90;;
22378;SDS011;11357;49.990;7.370;2024-03-25T03:42:15;1999.90;;;999.90;;
22378;SDS011;11357;49.990;7.370;2024-03-25T03:44:40;1999.90;;;999.90;;
22378;SDS011;11357;49.990;7.370;2024-03-25T03:47:06;1999.90;;;999.90;;
22378;SDS011;11357;49.990;7.370;2024-03-25T03:49:31;1999.90;;;999.90;;
22378;SDS011;11357;49.990;7.370;2024-03-25T03:51:57;1999.90;;;999.90;;
22378;SDS011;11357;49.990;7.370;2024-03-25T03:54:23;1999.90;;;999.90;;
22378;SDS011;11357;49.990;7.370;2024-03-25T03:56:48;1999.90;;;999.90;;
22378;SDS011;11357;49.990;7.370;2024-03-25T03:59:16;1999.90;;;999.90;;
22378;SDS011;11357;49.990;7.370;2024-03-25T04:01:42;1999.90;;;999.90;;
22378;SDS011;11357;49.990;7.370;2024-03-25T04:04:08;1999.90;;;999.90;;
22378;SDS011;11357;49.990;7.370;2024-03-25T04:06:33;1999.90;;;999.90;;
22378;SDS011;11357;49.990;7.370;2024-03-25T04:08:59;1999.90;;;999.90;;
22378;SDS011;11357;49.990;7.370;2024-03-25T04:11:25;1999.90;;;999.90;;
22378;SDS011;11357;49.990;7.370;2024-03-25T04:13:50;1999.90;;;999.90;;
22378;SDS011;11357;49.990;7.370;2024-03-25T04:16:16;1999.90;;;999.90;;
22378;SDS011;11357;49.990;7.370;2024-03-25T04:21:23;1999.90;;;999.90;;
22378;SDS011;11357;49.990;7.370;2024-03-25T04:23:49;1999.90;;;999.90;;
22378;SDS011;11357;49.990;7.370;2024-03-25T04:26:15;1999.90;;;999.90;;
22378;SDS011;11357;49.990;7.370;2024-03-25T04:28:40;1999.90;;;999.90;;
22378;SDS011;11357;49.990;7.370;2024-03-25T04:31:07;1999.90;;;999.90;;
22378;SDS011;11357;49.990;7.370;2024-03-25T04:33:33;1999.90;;;999.90;;
22378;SDS011;11357;49.990;7.370;2024-03-25T04:36:00;1999.90;;;999.90;;
22378;SDS011;11357;49.990;7.370;2024-03-25T04:38:25;1999.90;;;999.90;;
22378;SDS011;11357;49.990;7.370;2024-03-25T04:40:51;1999.90;;;999.90;;
22378;SDS011;11357;49.990;7.370;2024-03-25T04:43:17;1999.90;;;999.90;;
22378;SDS011;11357;49.990;7.370;2024-03-25T04:45:42;1999.90;;;999.90;;
22378;SDS011;11357;49.990;7.370;2024-03-25T04:48:08;1999.90;;;999.90;;
22378;SDS011;11357;49.990;7.370;2024-03-25T04:50:35;1999.90;;;999.90;;
22378;SDS011;11357;49.990;7.370;2024-03-25T04:53:00;1999.90;;;999.90;;
22378;SDS011;11357;49.990;7.370;2024-03-25T04:55:26;1999.90;;;999.90;;
22378;SDS011;11357;49.990;7.370;2024-03-25T04:57:52;1999.90;;;999.90;;
22378;SDS011;11357;49.990;7.370;2024-03-25T05:00:18;1999.90;;;999.90;;
22378;SDS011;11357;49.990;7.370;2024-03-25T05:02:44;1999.90;;;999.90;;
22378;SDS011;11357;49.990;7.370;2024-03-25T05:05:09;1999.90;;;999.90;;
22378;SDS011;11357;49.990;7.370;2024-03-25T05:07:35;1999.90;;;999.90;;
22378;SDS011;11357;49.990;7.370;2024-03-25T05:10:01;1999.90;;;999.90;;
22378;SDS011;11357;49.990;7.370;2024-03-25T05:12:27;1999.90;;;999.90;;
22378;SDS011;11357;49.990;7.370;2024-03-25T05:14:55;1999.90;;;999.90;;
22378;SDS011;11357;49.990;7.370;2024-03-25T05:17:21;1999.90;;;999.90;;
22378;SDS011;11357;49.990;7.370;2024-03-25T05:19:47;1999.90;;;999.90;;
22378;SDS011;11357;49.990;7.370;2024-03-25T05:22:12;1999.90;;;999.90;;
22378;SDS011;11357;49.990;7.370;2024-03-25T05:24:38;1999.90;;;999.90;;
22378;SDS011;11357;49.990;7.370;2024-03-25T05:27:04;1999.90;;;999.90;;
22378;SDS011;11357;49.990;7.370;2024-03-25T05:29:30;1999.90;;;999.90;;
22378;SDS011;11357;49.990;7.370;2024-03-25T05:31:59;1999.90;;;999.90;;
22378;SDS011;11357;49.990;7.370;2024-03-25T05:34:26;1999.90;;;999.90;;
22378;SDS011;11357;49.990;7.370;2024-03-25T05:36:52;1999.90;;;999.90;;
22378;SDS011;11357;49.990;7.370;2024-03-25T05:39:19;1999.90;;;999.90;;
22378;SDS011;11357;49.990;7.370;2024-03-25T05:41:45;1999.90;;;999.90;;
22378;SDS011;11357;49.990;7.370;2024-03-25T05:44:11;1999.90;;;999.90;;
22378;SDS011;11357;49.990;7.370;2024-03-25T05:46:37;1999.90;;;999.90;;
22378;SDS011;11357;49.990;7.370;2024-03-25T05:49:04;1999.90;;;999.90;;
22378;SDS011;11357;49.990;7.370;2024-03-25T05:51:30;1999.90;;;999.90;;
22378;SDS011;11357;49.990;7.370;2024-03-25T05:53:58;1999.90;;;999.90;;
22378;SDS011;11357;49.990;7.370;2024-03-25T05:56:24;1999.90;;;999.90;;
22378;SDS011;11357;49.990;7.370;2024-03-25T05:58:55;1999.90;;;999.90;;
22378;SDS011;11357;49.990;7.370;2024-03-25T06:01:24;1999.90;;;999.90;;
22378;SDS011;11357;49.990;7.370;2024-03-25T06:03:50;1999.90;;;999.90;;
22378;SDS011;11357;49.990;7.370;2024-03-25T06:06:16;1999.90;;;999.90;;
22378;SDS011;11357;49.990;7.370;2024-03-25T06:08:42;1999.90;;;999.90;;
22378;SDS011;11357;49.990;7.370;2024-03-25T06:11:08;1999.90;;;999.90;;
22378;SDS011;11357;49.990;7.370;2024-03-25T06:13:34;1999.90;;;999.90;;
22378;SDS011;11357;49.990;7.370;2024-03-25T06:15:59;1999.90;;;999.90;;
22378;SDS011;11357;49.990;7.370;2024-03-25T06:18:25;1999.90;;;999.90;;
22378;SDS011;11357;49.990;7.370;2024-03-25T06:20:51;1999.90;;;999.90;;
22378;SDS011;11357;49.990;7.370;2024-03-25T06:23:23;1999.90;;;999.90;;
22378;SDS011;11357;49.990;7.370;2024-03-25T06:25:53;1999.90;;;999.90;;
22378;SDS011;11357;49.990;7.370;2024-03-25T06:28:20;1999.90;;;999.90;;
22378;SDS011;11357;49.990;7.370;2024-03-25T06:30:46;1999.90;;;999.90;;
22378;SDS011;11357;49.990;7.370;2024-03-25T06:33:31;1999.90;;;999.90;;
22378;SDS011;11357;49.990;7.370;2024-03-25T06:36:16;1999.90;;;999.90;;
22378;SDS011;11357;49.990;7.370;2024-03-25T06:38:42;1999.90;;;999.90;;
22378;SDS011;11357;49.990;7.370;2024-03-25T06:41:08;1999.90;;;999.90;;
22378;SDS011;11357;49.990;7.370;2024-03-25T06:43:34;1999.90;;;999.90;;
22378;SDS011;11357;49.990;7.370;2024-03-25T06:46:00;1999.90;;;999.90;;
22378;SDS011;11357;49.990;7.370;2024-03-25T06:48:25;1999.90;;;999.90;;
22378;SDS011;11357;49.990;7.370;2024-03-25T06:50:52;1999.90;;;999.90;;
22378;SDS011;11357;49.990;7.370;2024-03-25T06:53:21;1999.90;;;999.90;;
22378;SDS011;11357;49.990;7.370;2024-03-25T06:55:53;1999.90;;;999.90;;
22378;SDS011;11357;49.990;7.370;2024-03-25T06:58:21;1999.90;;;999.90;;
22378;SDS011;11357;49.990;7.370;2024-03-25T07:00:48;1426.10;;;682.70;;
22378;SDS011;11357;49.990;7.370;2024-03-25T07:03:20;1999.90;;;999.90;;
22378;SDS011;11357;49.990;7.370;2024-03-25T07:05:47;1999.90;;;999.90;;
22378;SDS011;11357;49.990;7.370;2024-03-25T07:08:14;1999.90;;;999.90;;
22378;SDS011;11357;49.990;7.370;2024-03-25T07:10:43;1999.90;;;999.90;;
22378;SDS011;11357;49.990;7.370;2024-03-25T07:13:10;1999.90;;;999.90;;
22378;SDS011;11357;49.990;7.370;2024-03-25T07:15:36;1999.90;;;999.90;;
22378;SDS011;11357;49.990;7.370;2024-03-25T07:18:02;1999.90;;;999.90;;
22378;SDS011;11357;49.990;7.370;2024-03-25T07:20:29;1999.90;;;999.90;;
22378;SDS011;11357;49.990;7.370;2024-03-25T07:22:55;1999.90;;;999.90;;
22378;SDS011;11357;49.990;7.370;2024-03-25T07:25:24;1999.90;;;999.90;;
22378;SDS011;11357;49.990;7.370;2024-03-25T07:27:50;1594.40;;;719.73;;
22378;SDS011;11357;49.990;7.370;2024-03-25T07:30:17;1999.90;;;999.90;;
22378;SDS011;11357;49.990;7.370;2024-03-25T07:32:43;1999.90;;;999.90;;
22378;SDS011;11357;49.990;7.370;2024-03-25T07:35:10;1999.90;;;999.90;;
22378;SDS011;11357;49.990;7.370;2024-03-25T07:37:36;1999.90;;;999.90;;
22378;SDS011;11357;49.990;7.370;2024-03-25T07:40:02;1999.90;;;999.90;;
22378;SDS011;11357;49.990;7.370;2024-03-25T07:42:29;1999.90;;;999.90;;
22378;SDS011;11357;49.990;7.370;2024-03-25T07:44:55;1999.90;;;999.90;;
22378;SDS011;11357;49.990;7.370;2024-03-25T07:47:21;1999.90;;;999.90;;
22378;SDS011;11357;49.990;7.370;2024-03-25T07:49:46;1999.90;;;742.53;;
22378;SDS011;11357;49.990;7.370;2024-03-25T07:52:12;1999.90;;;999.90;;
22378;SDS011;11357;49.990;7.370;2024-03-25T07:54:38;1923.00;;;706.47;;
22378;SDS011;11357;49.990;7.370;2024-03-25T07:57:04;1461.50;;;641.80;;
22378;SDS011;11357;49.990;7.370;2024-03-25T07:59:30;1642.10;;;683.87;;
22378;SDS011;11357;49.990;7.370;2024-03-25T08:01:56;1404.80;;;621.10;;
22378;SDS011;11357;49.990;7.370;2024-03-25T08:04:21;206.97;;;195.87;;
22378;SDS011;11357;49.990;7.370;2024-03-25T08:06:47;1312.53;;;686.03;;
22378;SDS011;11357;49.990;7.370;2024-03-25T08:09:13;1227.53;;;575.63;;
22378;SDS011;11357;49.990;7.370;2024-03-25T08:11:40;1999.90;;;704.00;;
22378;SDS011;11357;49.990;7.370;2024-03-25T08:14:08;1999.90;;;999.90;;
22378;SDS011;11357;49.990;7.370;2024-03-25T08:16:34;1135.93;;;671.50;;
22378;SDS011;11357;49.990;7.370;2024-03-25T08:19:00;1843.07;;;897.03;;
22378;SDS011;11357;49.990;7.370;2024-03-25T08:21:26;553.47;;;519.83;;
22378;SDS011;11357;49.990;7.370;2024-03-25T08:23:51;612.37;;;572.37;;
22378;SDS011;11357;49.990;7.370;2024-03-25T08:26:17;790.97;;;734.23;;
22378;SDS011;11357;49.990;7.370;2024-03-25T08:28:43;848.20;;;785.40;;
22378;SDS011;11357;49.990;7.370;2024-03-25T08:31:08;1347.17;;;999.90;;
22378;SDS011;11357;49.990;7.370;2024-03-25T08:33:34;1730.37;;;999.90;;
22378;SDS011;11357;49.990;7.370;2024-03-25T08:36:00;1985.93;;;999.90;;
22378;SDS011;11357;49.990;7.370;2024-03-25T08:38:26;1766.10;;;999.90;;
22378;SDS011;11357;49.990;7.370;2024-03-25T08:40:51;1754.73;;;999.90;;
22378;SDS011;11357;49.990;7.370;2024-03-25T08:43:18;1837.73;;;999.90;;
22378;SDS011;11357;49.990;7.370;2024-03-25T08:45:44;1771.60;;;999.90;;
22378;SDS011;11357;49.990;7.370;2024-03-25T08:48:11;1669.53;;;999.90;;
22378;SDS011;11357;49.990;7.370;2024-03-25T08:50:36;1433.23;;;999.90;;
22378;SDS011;11357;49.990;7.370;2024-03-25T08:53:02;1296.20;;;999.90;;
22378;SDS011;11357;49.990;7.370;2024-03-25T08:55:29;1420.50;;;999.90;;
22378;SDS011;11357;49.990;7.370;2024-03-25T08:57:55;1537.47;;;999.90;;
22378;SDS011;11357;49.990;7.370;2024-03-25T09:00:23;1642.10;;;999.90;;
22378;SDS011;11357;49.990;7.370;2024-03-25T09:02:52;1353.57;;;999.90;;
22378;SDS011;11357;49.990;7.370;2024-03-25T09:05:21;1543.17;;;999.90;;
22378;SDS011;11357;49.990;7.370;2024-03-25T09:07:50;1343.80;;;999.90;;
22378;SDS011;11357;49.990;7.370;2024-03-25T09:10:17;1427.00;;;999.90;;
22378;SDS011;11357;49.990;7.370;2024-03-25T09:13:02;1392.57;;;999.90;;
22378;SDS011;11357;49.990;7.370;2024-03-25T09:15:28;1334.23;;;999.90;;
22378;SDS011;11357;49.990;7.370;2024-03-25T09:17:54;1742.73;;;999.90;;
22378;SDS011;11357;49.990;7.370;2024-03-25T09:20:20;1450.60;;;999.90;;
22378;SDS011;11357;49.990;7.370;2024-03-25T09:22:49;1293.73;;;999.90;;
22378;SDS011;11357;49.990;7.370;2024-03-25T09:25:17;1259.17;;;999.90;;
22378;SDS011;11357;49.990;7.370;2024-03-25T09:27:47;1339.53;;;999.90;;
22378;SDS011;11357;49.990;7.370;2024-03-25T09:30:13;1436.73;;;999.90;;
22378;SDS011;11357;49.990;7.370;2024-03-25T09:32:42;1999.90;;;999.90;;
22378;SDS011;11357;49.990;7.370;2024-03-25T09:35:11;1267.73;;;899.27;;
22378;SDS011;11357;49.990;7.370;2024-03-25T09:37:37;1422.50;;;897.70;;
22378;SDS011;11357;49.990;7.370;2024-03-25T09:40:03;1999.90;;;999.90;;
22378;SDS011;11357;49.990;7.370;2024-03-25T09:42:41;1999.90;;;999.90;;
22378;SDS011;11357;49.990;7.370;2024-03-25T09:45:10;1999.90;;;999.90;;
22378;SDS011;11357;49.990;7.370;2024-03-25T09:47:37;1999.90;;;999.90;;
22378;SDS011;11357;49.990;7.370;2024-03-25T09:50:05;1999.90;;;999.90;;
22378;SDS011;11357;49.990;7.370;2024-03-25T09:52:33;1999.90;;;999.90;;
22378;SDS011;11357;49.990;7.370;2024-03-25T09:54:59;1999.90;;;999.90;;
22378;SDS011;11357;49.990;7.370;2024-03-25T09:57:24;1999.90;;;999.90;;
22378;SDS011;11357;49.990;7.370;2024-03-25T09:59:51;1999.90;;;999.90;;
22378;SDS011;11357;49.990;7.370;2024-03-25T10:02:17;1999.90;;;999.90;;
22378;SDS011;11357;49.990;7.370;2024-03-25T10:04:46;1999.90;;;999.90;;
22378;SDS011;11357;49.990;7.370;2024-03-25T10:07:21;1999.90;;;999.90;;
22378;SDS011;11357;49.990;7.370;2024-03-25T10:09:47;1999.90;;;999.90;;
22378;SDS011;11357;49.990;7.370;2024-03-25T10:12:14;1999.90;;;999.90;;
22378;SDS011;11357;49.990;7.370;2024-03-25T10:14:40;1999.90;;;999.90;;
22378;SDS011;11357;49.990;7.370;2024-03-25T10:17:06;1999.90;;;999.90;;
22378;SDS011;11357;49.990;7.370;2024-03-25T10:19:32;1999.90;;;999.90;;
22378;SDS011;11357;49.990;7.370;2024-03-25T10:22:05;1999.90;;;999.90;;
22378;SDS011;11357;49.990;7.370;2024-03-25T10:24:41;1999.90;;;999.90;;
22378;SDS011;11357;49.990;7.370;2024-03-25T10:27:10;1999.90;;;999.90;;
22378;SDS011;11357;49.990;7.370;2024-03-25T10:29:55;1999.90;;;999.90;;
22378;SDS011;11357;49.990;7.370;2024-03-25T10:32:21;1999.90;;;999.90;;
22378;SDS011;11357;49.990;7.370;2024-03-25T10:34:52;1999.90;;;999.90;;
22378;SDS011;11357;49.990;7.370;2024-03-25T10:37:18;1999.90;;;999.90;;
22378;SDS011;11357;49.990;7.370;2024-03-25T10:39:47;1999.90;;;999.90;;
22378;SDS011;11357;49.990;7.370;2024-03-25T10:42:16;1999.90;;;999.90;;
22378;SDS011;11357;49.990;7.370;2024-03-25T10:44:44;1999.90;;;999.90;;
22378;SDS011;11357;49.990;7.370;2024-03-25T10:47:11;1999.90;;;999.90;;
22378;SDS011;11357;49.990;7.370;2024-03-25T10:49:45;1999.90;;;999.90;;
22378;SDS011;11357;49.990;7.370;2024-03-25T10:52:14;1999.90;;;999.90;;
22378;SDS011;11357;49.990;7.370;2024-03-25T10:54:42;1999.90;;;999.90;;
22378;SDS011;11357;49.990;7.370;2024-03-25T10:57:09;1999.90;;;999.90;;
22378;SDS011;11357;49.990;7.370;2024-03-25T10:59:37;1999.90;;;999.90;;
22378;SDS011;11357;49.990;7.370;2024-03-25T11:02:06;1999.90;;;999.90;;
22378;SDS011;11357;49.990;7.370;2024-03-25T11:04:36;1999.90;;;999.90;;
22378;SDS011;11357;49.990;7.370;2024-03-25T11:07:06;1999.90;;;999.90;;
22378;SDS011;11357;49.990;7.370;2024-03-25T11:09:36;1999.90;;;999.90;;
22378;SDS011;11357;49.990;7.370;2024-03-25T11:12:02;1999.90;;;999.90;;
22378;SDS011;11357;49.990;7.370;2024-03-25T11:14:28;1540.77;;;721.30;;
22378;SDS011;11357;49.990;7.370;2024-03-25T11:16:54;1999.90;;;999.90;;
22378;SDS011;11357;49.990;7.370;2024-03-25T11:19:20;1999.90;;;999.90;;
22378;SDS011;11357;49.990;7.370;2024-03-25T11:21:51;1999.90;;;999.90;;
22378;SDS011;11357;49.990;7.370;2024-03-25T11:24:29;1999.90;;;999.90;;
22378;SDS011;11357;49.990;7.370;2024-03-25T11:26:55;1999.90;;;999.90;;
22378;SDS011;11357;49.990;7.370;2024-03-25T11:29:21;1999.90;;;999.90;;
22378;SDS011;11357;49.990;7.370;2024-03-25T11:31:50;1999.90;;;999.90;;
22378;SDS011;11357;49.990;7.370;2024-03-25T11:34:18;1999.90;;;999.90;;
22378;SDS011;11357;49.990;7.370;2024-03-25T11:36:44;1999.90;;;999.90;;
22378;SDS011;11357;49.990;7.370;2024-03-25T11:39:12;1999.90;;;999.90;;
22378;SDS011;11357;49.990;7.370;2024-03-25T11:41:44;1999.90;;;999.90;;
22378;SDS011;11357;49.990;7.370;2024-03-25T11:44:10;1999.90;;;999.90;;
22378;SDS011;11357;49.990;7.370;2024-03-25T11:46:39;1999.90;;;999.90;;
22378;SDS011;11357;49.990;7.370;2024-03-25T11:49:06;1999.90;;;999.90;;
22378;SDS011;11357;49.990;7.370;2024-03-25T11:51:35;1999.90;;;999.90;;
22378;SDS011;11357;49.990;7.370;2024-03-25T11:54:03;1999.90;;;999.90;;
22378;SDS011;11357;49.990;7.370;2024-03-25T11:56:32;1999.90;;;999.90;;
22378;SDS011;11357;49.990;7.370;2024-03-25T11:59:01;1999.90;;;999.90;;
22378;SDS011;11357;49.990;7.370;2024-03-25T12:01:30;1999.90;;;999.90;;
22378;SDS011;11357;49.990;7.370;2024-03-25T12:03:56;1999.90;;;999.90;;
22378;SDS011;11357;49.990;7.370;2024-03-25T12:06:22;1999.90;;;999.90;;
22378;SDS011;11357;49.990;7.370;2024-03-25T12:08:48;1999.90;;;999.90;;
22378;SDS011;11357;49.990;7.370;2024-03-25T12:11:33;1999.90;;;999.90;;
22378;SDS011;11357;49.990;7.370;2024-03-25T12:13:59;1999.90;;;999.90;;
22378;SDS011;11357;49.990;7.370;2024-03-25T12:16:25;1999.90;;;999.90;;
22378;SDS011;11357;49.990;7.370;2024-03-25T12:18:51;1999.90;;;999.90;;
22378;SDS011;11357;49.990;7.370;2024-03-25T12:21:20;1999.90;;;999.90;;
22378;SDS011;11357;49.990;7.370;2024-03-25T12:23:46;1999.90;;;999.90;;
22378;SDS011;11357;49.990;7.370;2024-03-25T12:26:12;1999.90;;;999.90;;
22378;SDS011;11357;49.990;7.370;2024-03-25T12:28:39;1999.90;;;999.90;;
22378;SDS011;11357;49.990;7.370;2024-03-25T12:31:08;1999.90;;;999.90;;
22378;SDS011;11357;49.990;7.370;2024-03-25T12:33:40;1999.90;;;999.90;;
22378;SDS011;11357;49.990;7.370;2024-03-25T12:36:06;1999.90;;;999.90;;
22378;SDS011;11357;49.990;7.370;2024-03-25T12:38:32;1999.90;;;999.90;;
22378;SDS011;11357;49.990;7.370;2024-03-25T12:41:08;1999.90;;;999.90;;
22378;SDS011;11357;49.990;7.370;2024-03-25T12:43:35;1999.90;;;999.90;;
22378;SDS011;11357;49.990;7.370;2024-03-25T12:46:06;1999.90;;;999.90;;
22378;SDS011;11357;49.990;7.370;2024-03-25T12:48:33;1999.90;;;999.90;;
22378;SDS011;11357;49.990;7.370;2024-03-25T12:50:59;1999.90;;;999.90;;
22378;SDS011;11357;49.990;7.370;2024-03-25T12:53:25;1999.90;;;999.90;;
22378;SDS011;11357;49.990;7.370;2024-03-25T12:55:52;1999.90;;;999.90;;
22378;SDS011;11357;49.990;7.370;2024-03-25T12:58:17;1999.90;;;999.90;;
22378;SDS011;11357;49.990;7.370;2024-03-25T13:00:43;1999.90;;;999.90;;
22378;SDS011;11357;49.990;7.370;2024-03-25T13:03:09;1999.90;;;999.90;;
22378;SDS011;11357;49.990;7.370;2024-03-25T13:05:36;1999.90;;;999.90;;
22378;SDS011;11357;49.990;7.370;2024-03-25T13:08:02;1999.90;;;999.90;;
22378;SDS011;11357;49.990;7.370;2024-03-25T13:10:31;1999.90;;;999.90;;
22378;SDS011;11357;49.990;7.370;2024-03-25T13:12:57;1999.90;;;999.90;;
22378;SDS011;11357;49.990;7.370;2024-03-25T13:15:22;1999.90;;;999.90;;
22378;SDS011;11357;49.990;7.370;2024-03-25T13:17:48;1999.90;;;999.90;;
22378;SDS011;11357;49.990;7.370;2024-03-25T13:20:14;1999.90;;;999.90;;
22378;SDS011;11357;49.990;7.370;2024-03-25T13:22:40;1999.90;;;999.90;;
22378;SDS011;11357;49.990;7.370;2024-03-25T13:25:06;1999.90;;;999.90;;
22378;SDS011;11357;49.990;7.370;2024-03-25T13:27:32;1999.90;;;999.90;;
22378;SDS011;11357;49.990;7.370;2024-03-25T13:29:58;1999.90;;;999.90;;
22378;SDS011;11357;49.990;7.370;2024-03-25T13:32:24;1999.90;;;999.90;;
22378;SDS011;11357;49.990;7.370;2024-03-25T13:34:50;1999.90;;;999.90;;
22378;SDS011;11357;49.990;7.370;2024-03-25T13:37:16;1999.90;;;999.90;;
22378;SDS011;11357;49.990;7.370;2024-03-25T13:39:41;1999.90;;;999.90;;
22378;SDS011;11357;49.990;7.370;2024-03-25T13:42:07;1999.90;;;999.90;;
22378;SDS011;11357;49.990;7.370;2024-03-25T13:44:33;1999.90;;;999.90;;
22378;SDS011;11357;49.990;7.370;2024-03-25T13:46:58;1999.90;;;999.90;;
22378;SDS011;11357;49.990;7.370;2024-03-25T13:49:24;1999.90;;;999.90;;
22378;SDS011;11357;49.990;7.370;2024-03-25T13:51:56;1999.90;;;999.90;;
22378;SDS011;11357;49.990;7.370;2024-03-25T13:54:23;1999.90;;;999.90;;
22378;SDS011;11357;49.990;7.370;2024-03-25T13:56:52;1999.90;;;999.90;;
22378;SDS011;11357;49.990;7.370;2024-03-25T13:59:18;1999.90;;;999.90;;
22378;SDS011;11357;49.990;7.370;2024-03-25T14:01:44;1999.90;;;999.90;;
22378;SDS011;11357;49.990;7.370;2024-03-25T14:04:09;1999.90;;;999.90;;
22378;SDS011;11357;49.990;7.370;2024-03-25T14:06:35;1999.90;;;999.90;;
22378;SDS011;11357;49.990;7.370;2024-03-25T14:09:01;1999.90;;;999.90;;
22378;SDS011;11357;49.990;7.370;2024-03-25T14:11:30;1999.90;;;999.90;;
22378;SDS011;11357;49.990;7.370;2024-03-25T14:13:56;1999.90;;;999.90;;
22378;SDS011;11357;49.990;7.370;2024-03-25T14:16:22;1999.90;;;999.90;;
22378;SDS011;11357;49.990;7.370;2024-03-25T14:18:47;1999.90;;;999.90;;
22378;SDS011;11357;49.990;7.370;2024-03-25T14:21:13;1999.90;;;999.90;;
22378;SDS011;11357;49.990;7.370;2024-03-25T14:23:39;1999.90;;;999.90;;